createdAt,value
2023-05-25T00:06:18.938Z,70.46
2023-05-25T00:16:48.808Z,70.52
2023-05-25T00:27:56.741Z,70.67
2023-05-25T00:38:30.549Z,71.68
2023-05-25T00:48:59.607Z,72.04
2023-05-25T00:59:36.399Z,72.55
2023-05-25T01:10:50.306Z,72.43
2023-05-25T01:21:53.629Z,72.12
2023-05-25T01:32:32.988Z,72.15
2023-05-25T01:43:00.745Z,72.30
2023-05-25T01:53:40.035Z,72.38
2023-05-25T02:04:26.743Z,72.41
2023-05-25T02:14:58.192Z,72.95
2023-05-25T02:25:30.610Z,74.17
2023-05-25T02:35:58.422Z,74.57
2023-05-25T02:47:05.257Z,74.80
2023-05-25T02:58:01.448Z,75.68
2023-05-25T03:09:24.211Z,75.59
2023-05-25T03:20:11.059Z,75.29
2023-05-25T03:30:49.326Z,75.13
2023-05-25T03:41:18.288Z,74.84
2023-05-25T03:52:04.264Z,74.63
2023-05-25T04:02:32.006Z,74.75
2023-05-25T04:13:06.730Z,74.70
2023-05-25T04:23:35.715Z,74.25
2023-05-25T04:34:22.097Z,74.69
2023-05-25T04:45:17.817Z,75.35
2023-05-25T04:56:42.388Z,75.58
2023-05-25T05:07:48.230Z,75.37
2023-05-25T05:18:29.940Z,75.18
2023-05-25T05:39:58.656Z,74.41
2023-05-25T05:50:50.721Z,73.85
2023-05-25T06:01:40.163Z,72.98
2023-05-25T06:12:37.982Z,72.53
2023-05-25T06:23:26.616Z,71.45
2023-05-25T06:34:04.414Z,70.57
2023-05-25T06:44:52.268Z,70.24
2023-05-25T06:55:30.932Z,69.69
2023-05-25T07:06:38.392Z,69.10
2023-05-25T07:18:12.921Z,68.24
2023-05-25T07:29:27.366Z,66.60
2023-05-25T07:40:30.085Z,65.95
2023-05-25T07:51:04.049Z,64.77
2023-05-25T08:01:50.585Z,64.08
2023-05-25T08:12:34.271Z,62.74
2023-05-25T08:23:30.612Z,61.45
2023-05-25T08:33:58.874Z,60.51
2023-05-25T08:44:42.509Z,59.53
2023-05-25T08:55:49.501Z,57.83
2023-05-25T09:19:18.016Z,55.36
2023-05-25T09:29:44.686Z,54.33
2023-05-25T09:40:35.322Z,53.32
2023-05-25T09:51:50.648Z,53.09
2023-05-25T10:02:39.699Z,52.36
2023-05-25T10:13:08.772Z,50.88
2023-05-25T10:23:49.978Z,51.27
2023-05-25T10:34:18.380Z,50.47
2023-05-25T10:44:44.407Z,49.71
2023-05-25T10:55:28.388Z,49.82
2023-05-25T11:06:10.748Z,49.32
2023-05-25T11:17:33.235Z,48.54
2023-05-25T11:28:19.087Z,47.73
2023-05-25T11:38:56.605Z,46.62
2023-05-25T11:49:52.620Z,46.79
2023-05-25T12:00:58.507Z,46.94
2023-05-25T12:11:34.833Z,45.91
2023-05-25T12:22:16.697Z,44.76
2023-05-25T12:33:04.062Z,46.23
2023-05-25T12:43:57.922Z,45.83
2023-05-25T12:54:45.817Z,46.16
2023-05-25T13:05:22.472Z,45.45
2023-05-25T13:15:47.724Z,45.52
2023-05-25T13:26:13.214Z,44.56
2023-05-25T13:36:44.670Z,43.33
2023-05-25T13:47:22.728Z,41.85
2023-05-25T13:57:46.812Z,41.58
2023-05-25T14:08:13.064Z,42.58
2023-05-25T14:18:37.897Z,42.12
2023-05-25T14:29:02.350Z,42.21
2023-05-25T14:39:27.134Z,41.42
2023-05-25T14:49:51.906Z,39.80
2023-05-25T15:00:16.370Z,39.26
2023-05-25T15:10:42.088Z,39.57
2023-05-25T15:21:06.996Z,41.13
2023-05-25T15:31:31.759Z,41.38
2023-05-25T15:41:56.693Z,41.80
2023-05-25T15:52:21.410Z,42.39
2023-05-25T16:02:45.920Z,43.39
2023-05-25T16:13:10.950Z,42.26
2023-05-25T16:23:35.515Z,41.56
2023-05-25T16:34:00.036Z,41.70
2023-05-25T16:44:25.197Z,42.26
2023-05-25T16:54:49.789Z,41.72
2023-05-25T17:05:14.019Z,41.54
2023-05-25T17:15:38.455Z,41.47
2023-05-25T17:26:03.950Z,41.83
2023-05-25T17:36:27.897Z,42.43
2023-05-25T17:46:53.601Z,41.55
2023-05-25T17:57:18.748Z,41.33
2023-05-25T18:07:42.861Z,40.43
2023-05-25T18:18:09.074Z,40.05
2023-05-25T18:28:34.053Z,40.78
2023-05-25T18:38:58.440Z,42.19
2023-05-25T18:49:24.366Z,44.73
2023-05-25T18:59:48.971Z,47.01
2023-05-25T19:10:13.075Z,48.31
2023-05-25T19:20:38.155Z,49.41
2023-05-25T19:31:03.384Z,51.07
2023-05-25T19:41:28.054Z,52.05
2023-05-25T19:51:52.968Z,53.07
2023-05-25T20:02:18.015Z,54.12
2023-05-25T20:12:42.363Z,54.62
2023-05-25T20:23:07.744Z,55.26
2023-05-25T20:33:32.805Z,56.45
2023-05-25T20:43:57.512Z,57.93
2023-05-25T20:54:22.808Z,58.92
2023-05-25T21:04:48.008Z,59.59
2023-05-25T21:15:12.189Z,60.22
2023-05-25T21:25:37.228Z,61.09
2023-05-25T21:36:03.236Z,61.83
2023-05-25T21:46:27.432Z,62.53
2023-05-25T21:56:52.508Z,62.96
2023-05-25T22:07:17.228Z,63.36
2023-05-25T22:17:41.110Z,63.58
2023-05-25T22:28:06.506Z,64.28
2023-05-25T22:38:31.200Z,64.93
2023-05-25T22:48:55.461Z,65.08
2023-05-25T22:59:20.211Z,65.03
2023-05-25T23:09:45.106Z,65.60
2023-05-25T23:20:09.628Z,65.87
2023-05-25T23:30:34.510Z,66.27
2023-05-25T23:40:59.133Z,66.73
2023-05-25T23:51:22.916Z,66.95
